sensor_id;sensor_type;location;lat;lon;timestamp;temperature;humidity
22635;DHT22;11484;50.858;4.384;2024-03-02T00:00:09;7.70;99.90
22635;DHT22;11484;50.858;4.384;2024-03-02T00:02:41;7.70;99.90
22635;DHT22;11484;50.858;4.384;2024-03-02T00:05:07;7.70;99.90
22635;DHT22;11484;50.858;4.384;2024-03-02T00:07:35;7.70;99.90
22635;DHT22;11484;50.858;4.384;2024-03-02T00:10:06;7.70;99.90
22635;DHT22;11484;50.858;4.384;2024-03-02T00:12:33;7.60;99.90
22635;DHT22;11484;50.858;4.384;2024-03-02T00:14:59;7.60;99.90
22635;DHT22;11484;50.858;4.384;2024-03-02T00:17:28;7.60;99.90
22635;DHT22;11484;50.858;4.384;2024-03-02T00:19:55;7.60;99.90
22635;DHT22;11484;50.858;4.384;2024-03-02T00:22:20;7.60;99.90
22635;DHT22;11484;50.858;4.384;2024-03-02T00:24:46;7.50;99.90
22635;DHT22;11484;50.858;4.384;2024-03-02T00:27:14;7.50;99.90
22635;DHT22;11484;50.858;4.384;2024-03-02T00:29:40;7.50;99.90
22635;DHT22;11484;50.858;4.384;2024-03-02T00:32:12;7.50;99.90
22635;DHT22;11484;50.858;4.384;2024-03-02T00:34:39;7.50;99.90
22635;DHT22;11484;50.858;4.384;2024-03-02T00:37:05;7.50;99.90
22635;DHT22;11484;50.858;4.384;2024-03-02T00:39:31;7.50;99.90
22635;DHT22;11484;50.858;4.384;2024-03-02T00:41:57;7.40;99.90
22635;DHT22;11484;50.858;4.384;2024-03-02T00:44:25;7.50;99.90
22635;DHT22;11484;50.858;4.384;2024-03-02T00:46:52;7.50;99.90
22635;DHT22;11484;50.858;4.384;2024-03-02T00:49:21;7.60;99.90
22635;DHT22;11484;50.858;4.384;2024-03-02T00:51:50;7.60;99.90
22635;DHT22;11484;50.858;4.384;2024-03-02T00:54:22;7.60;99.90
22635;DHT22;11484;50.858;4.384;2024-03-02T00:56:50;7.60;99.90
22635;DHT22;11484;50.858;4.384;2024-03-02T00:59:16;7.60;99.90
22635;DHT22;11484;50.858;4.384;2024-03-02T01:01:42;7.60;99.90
22635;DHT22;11484;50.858;4.384;2024-03-02T01:04:08;7.60;99.90
22635;DHT22;11484;50.858;4.384;2024-03-02T01:06:35;7.60;99.90
22635;DHT22;11484;50.858;4.384;2024-03-02T01:09:00;7.60;99.90
22635;DHT22;11484;50.858;4.384;2024-03-02T01:11:26;7.70;99.90
22635;DHT22;11484;50.858;4.384;2024-03-02T01:13:52;7.80;99.90
22635;DHT22;11484;50.858;4.384;2024-03-02T01:16:17;7.80;99.90
22635;DHT22;11484;50.858;4.384;2024-03-02T01:18:43;7.80;99.90
22635;DHT22;11484;50.858;4.384;2024-03-02T01:21:09;7.90;99.90
22635;DHT22;11484;50.858;4.384;2024-03-02T01:23:35;7.90;99.90
22635;DHT22;11484;50.858;4.384;2024-03-02T01:26:01;7.80;99.90
22635;DHT22;11484;50.858;4.384;2024-03-02T01:28:26;7.80;99.90
22635;DHT22;11484;50.858;4.384;2024-03-02T01:30:52;7.70;99.90
22635;DHT22;11484;50.858;4.384;2024-03-02T01:33:18;7.80;99.90
22635;DHT22;11484;50.858;4.384;2024-03-02T01:35:44;7.80;99.90
22635;DHT22;11484;50.858;4.384;2024-03-02T01:38:10;7.70;99.90
22635;DHT22;11484;50.858;4.384;2024-03-02T01:40:37;7.70;99.90
22635;DHT22;11484;50.858;4.384;2024-03-02T01:43:06;7.70;99.90
22635;DHT22;11484;50.858;4.384;2024-03-02T01:45:33;7.70;99.90
22635;DHT22;11484;50.858;4.384;2024-03-02T01:48:00;7.80;99.90
22635;DHT22;11484;50.858;4.384;2024-03-02T01:50:28;7.80;99.90
22635;DHT22;11484;50.858;4.384;2024-03-02T01:52:55;7.60;99.90
22635;DHT22;11484;50.858;4.384;2024-03-02T01:55:21;7.70;99.90
22635;DHT22;11484;50.858;4.384;2024-03-02T01:57:47;7.80;99.90
22635;DHT22;11484;50.858;4.384;2024-03-02T02:00:14;7.80;99.90
22635;DHT22;11484;50.858;4.384;2024-03-02T02:02:39;7.80;99.90
22635;DHT22;11484;50.858;4.384;2024-03-02T02:05:06;7.90;99.90
22635;DHT22;11484;50.858;4.384;2024-03-02T02:07:31;7.90;99.90
22635;DHT22;11484;50.858;4.384;2024-03-02T02:09:57;7.90;99.90
22635;DHT22;11484;50.858;4.384;2024-03-02T02:12:23;7.90;99.90
22635;DHT22;11484;50.858;4.384;2024-03-02T02:14:49;7.90;99.90
22635;DHT22;11484;50.858;4.384;2024-03-02T02:17:16;8.00;99.90
22635;DHT22;11484;50.858;4.384;2024-03-02T02:19:42;7.90;99.90
22635;DHT22;11484;50.858;4.384;2024-03-02T02:22:08;7.90;99.90
22635;DHT22;11484;50.858;4.384;2024-03-02T02:24:34;8.00;99.90
22635;DHT22;11484;50.858;4.384;2024-03-02T02:27:00;8.00;99.90
22635;DHT22;11484;50.858;4.384;2024-03-02T02:29:25;8.10;99.90
22635;DHT22;11484;50.858;4.384;2024-03-02T02:31:51;8.10;99.90
22635;DHT22;11484;50.858;4.384;2024-03-02T02:34:17;8.10;99.90
22635;DHT22;11484;50.858;4.384;2024-03-02T02:36:43;8.10;99.90
22635;DHT22;11484;50.858;4.384;2024-03-02T02:39:11;8.10;99.90
22635;DHT22;11484;50.858;4.384;2024-03-02T02:41:38;8.00;99.90
22635;DHT22;11484;50.858;4.384;2024-03-02T02:44:04;8.00;99.90
22635;DHT22;11484;50.858;4.384;2024-03-02T02:46:30;8.00;99.90
22635;DHT22;11484;50.858;4.384;2024-03-02T02:48:56;7.90;99.90
22635;DHT22;11484;50.858;4.384;2024-03-02T02:51:21;7.90;99.90
22635;DHT22;11484;50.858;4.384;2024-03-02T02:53:47;7.90;99.90
22635;DHT22;11484;50.858;4.384;2024-03-02T02:56:12;7.90;99.90
22635;DHT22;11484;50.858;4.384;2024-03-02T02:58:40;7.80;99.90
22635;DHT22;11484;50.858;4.384;2024-03-02T03:01:07;7.80;99.90
22635;DHT22;11484;50.858;4.384;2024-03-02T03:03:33;7.70;99.90
22635;DHT22;11484;50.858;4.384;2024-03-02T03:05:59;7.60;99.90
22635;DHT22;11484;50.858;4.384;2024-03-02T03:08:24;7.60;99.90
22635;DHT22;11484;50.858;4.384;2024-03-02T03:10:50;7.50;99.90
22635;DHT22;11484;50.858;4.384;2024-03-02T03:13:16;7.50;99.90
22635;DHT22;11484;50.858;4.384;2024-03-02T03:15:42;7.50;99.90
22635;DHT22;11484;50.858;4.384;2024-03-02T03:18:07;7.50;99.90
22635;DHT22;11484;50.858;4.384;2024-03-02T03:20:35;7.40;99.90
22635;DHT22;11484;50.858;4.384;2024-03-02T03:23:01;7.30;99.90
22635;DHT22;11484;50.858;4.384;2024-03-02T03:25:27;7.40;99.90
22635;DHT22;11484;50.858;4.384;2024-03-02T03:27:53;7.40;99.90
22635;DHT22;11484;50.858;4.384;2024-03-02T03:30:18;7.40;99.90
22635;DHT22;11484;50.858;4.384;2024-03-02T03:32:44;7.40;99.90
22635;DHT22;11484;50.858;4.384;2024-03-02T03:35:10;7.40;99.90
22635;DHT22;11484;50.858;4.384;2024-03-02T03:37:37;7.50;99.90
22635;DHT22;11484;50.858;4.384;2024-03-02T03:40:04;7.50;99.90
22635;DHT22;11484;50.858;4.384;2024-03-02T03:42:35;7.60;99.90
22635;DHT22;11484;50.858;4.384;2024-03-02T03:45:01;7.60;99.90
22635;DHT22;11484;50.858;4.384;2024-03-02T03:47:27;7.60;99.90
22635;DHT22;11484;50.858;4.384;2024-03-02T03:49:53;7.70;99.90
22635;DHT22;11484;50.858;4.384;2024-03-02T03:52:18;7.70;99.90
22635;DHT22;11484;50.858;4.384;2024-03-02T03:54:44;7.60;99.90
22635;DHT22;11484;50.858;4.384;2024-03-02T03:57:10;7.60;99.90
22635;DHT22;11484;50.858;4.384;2024-03-02T03:59:35;7.60;99.90
22635;DHT22;11484;50.858;4.384;2024-03-02T04:02:03;7.60;99.90
22635;DHT22;11484;50.858;4.384;2024-03-02T04:04:29;7.60;99.90
22635;DHT22;11484;50.858;4.384;2024-03-02T04:06:54;7.70;99.90
22635;DHT22;11484;50.858;4.384;2024-03-02T04:09:20;7.70;99.90
22635;DHT22;11484;50.858;4.384;2024-03-02T04:11:46;7.70;99.90
22635;DHT22;11484;50.858;4.384;2024-03-02T04:14:11;7.70;99.90
22635;DHT22;11484;50.858;4.384;2024-03-02T04:16:38;7.70;99.90
22635;DHT22;11484;50.858;4.384;2024-03-02T04:19:04;7.60;99.90
22635;DHT22;11484;50.858;4.384;2024-03-02T04:21:30;7.60;99.90
22635;DHT22;11484;50.858;4.384;2024-03-02T04:23:56;7.60;99.90
22635;DHT22;11484;50.858;4.384;2024-03-02T04:26:25;7.50;99.90
22635;DHT22;11484;50.858;4.384;2024-03-02T04:28:52;7.50;99.90
22635;DHT22;11484;50.858;4.384;2024-03-02T04:31:18;7.50;99.90
22635;DHT22;11484;50.858;4.384;2024-03-02T04:33:43;7.50;99.90
22635;DHT22;11484;50.858;4.384;2024-03-02T04:36:09;7.40;99.90
22635;DHT22;11484;50.858;4.384;2024-03-02T04:38:35;7.40;99.90
22635;DHT22;11484;50.858;4.384;2024-03-02T04:41:01;7.40;99.90
22635;DHT22;11484;50.858;4.384;2024-03-02T04:43:27;7.40;99.90
22635;DHT22;11484;50.858;4.384;2024-03-02T04:45:52;7.50;99.90
22635;DHT22;11484;50.858;4.384;2024-03-02T04:48:18;7.50;99.90
22635;DHT22;11484;50.858;4.384;2024-03-02T04:50:44;7.50;99.90
22635;DHT22;11484;50.858;4.384;2024-03-02T04:53:10;7.50;99.90
22635;DHT22;11484;50.858;4.384;2024-03-02T04:55:36;7.50;99.90
22635;DHT22;11484;50.858;4.384;2024-03-02T04:58:04;7.40;99.90
22635;DHT22;11484;50.858;4.384;2024-03-02T05:00:30;7.40;99.90
22635;DHT22;11484;50.858;4.384;2024-03-02T05:02:56;7.40;99.90
22635;DHT22;11484;50.858;4.384;2024-03-02T05:05:22;7.40;99.90
22635;DHT22;11484;50.858;4.384;2024-03-02T05:07:47;7.40;99.90
22635;DHT22;11484;50.858;4.384;2024-03-02T05:10:13;7.30;99.90
22635;DHT22;11484;50.858;4.384;2024-03-02T05:12:39;7.40;99.90
22635;DHT22;11484;50.858;4.384;2024-03-02T05:15:12;7.40;99.90
22635;DHT22;11484;50.858;4.384;2024-03-02T05:17:39;7.30;99.90
22635;DHT22;11484;50.858;4.384;2024-03-02T05:20:06;7.30;99.90
22635;DHT22;11484;50.858;4.384;2024-03-02T05:22:33;7.30;99.90
22635;DHT22;11484;50.858;4.384;2024-03-02T05:25:00;7.20;99.90
22635;DHT22;11484;50.858;4.384;2024-03-02T05:27:26;7.20;99.90
22635;DHT22;11484;50.858;4.384;2024-03-02T05:29:52;7.20;99.90
22635;DHT22;11484;50.858;4.384;2024-03-02T05:32:18;7.20;99.90
22635;DHT22;11484;50.858;4.384;2024-03-02T05:34:44;7.20;99.90
22635;DHT22;11484;50.858;4.384;2024-03-02T05:37:09;7.10;99.90
22635;DHT22;11484;50.858;4.384;2024-03-02T05:39:35;7.00;99.90
22635;DHT22;11484;50.858;4.384;2024-03-02T05:42:01;7.00;99.90
22635;DHT22;11484;50.858;4.384;2024-03-02T05:44:26;7.00;99.90
22635;DHT22;11484;50.858;4.384;2024-03-02T05:46:52;7.00;99.90
22635;DHT22;11484;50.858;4.384;2024-03-02T05:49:18;7.00;99.90
22635;DHT22;11484;50.858;4.384;2024-03-02T05:51:43;7.00;99.90
22635;DHT22;11484;50.858;4.384;2024-03-02T05:54:09;6.90;99.90
22635;DHT22;11484;50.858;4.384;2024-03-02T05:56:35;6.90;99.90
22635;DHT22;11484;50.858;4.384;2024-03-02T05:59:01;6.90;99.90
22635;DHT22;11484;50.858;4.384;2024-03-02T06:01:47;6.80;99.90
22635;DHT22;11484;50.858;4.384;2024-03-02T06:04:15;6.80;99.90
22635;DHT22;11484;50.858;4.384;2024-03-02T06:06:41;6.80;99.90
22635;DHT22;11484;50.858;4.384;2024-03-02T06:09:07;6.80;99.90
22635;DHT22;11484;50.858;4.384;2024-03-02T06:11:40;6.80;99.90
22635;DHT22;11484;50.858;4.384;2024-03-02T06:14:07;6.80;99.90
22635;DHT22;11484;50.858;4.384;2024-03-02T06:16:33;6.90;99.90
22635;DHT22;11484;50.858;4.384;2024-03-02T06:18:59;6.80;99.90
22635;DHT22;11484;50.858;4.384;2024-03-02T06:21:26;6.80;99.90
22635;DHT22;11484;50.858;4.384;2024-03-02T06:23:51;6.80;99.90
22635;DHT22;11484;50.858;4.384;2024-03-02T06:26:17;6.80;99.90
22635;DHT22;11484;50.858;4.384;2024-03-02T06:28:44;6.90;99.90
22635;DHT22;11484;50.858;4.384;2024-03-02T06:31:09;6.90;99.90
22635;DHT22;11484;50.858;4.384;2024-03-02T06:33:35;6.80;99.90
22635;DHT22;11484;50.858;4.384;2024-03-02T06:36:02;6.80;99.90
22635;DHT22;11484;50.858;4.384;2024-03-02T06:38:27;6.80;99.90
22635;DHT22;11484;50.858;4.384;2024-03-02T06:40:53;6.80;99.90
22635;DHT22;11484;50.858;4.384;2024-03-02T06:43:20;6.80;99.90
22635;DHT22;11484;50.858;4.384;2024-03-02T06:45:50;6.80;99.90
22635;DHT22;11484;50.858;4.384;2024-03-02T06:48:16;6.80;99.90
22635;DHT22;11484;50.858;4.384;2024-03-02T06:50:46;6.80;99.90
22635;DHT22;11484;50.858;4.384;2024-03-02T06:53:12;6.90;99.90
22635;DHT22;11484;50.858;4.384;2024-03-02T06:55:38;6.90;99.90
22635;DHT22;11484;50.858;4.384;2024-03-02T06:58:03;7.00;99.90
22635;DHT22;11484;50.858;4.384;2024-03-02T07:00:30;7.00;99.90
22635;DHT22;11484;50.858;4.384;2024-03-02T07:02:56;7.00;99.90
22635;DHT22;11484;50.858;4.384;2024-03-02T07:05:21;7.00;99.90
22635;DHT22;11484;50.858;4.384;2024-03-02T07:07:47;7.00;99.90
22635;DHT22;11484;50.858;4.384;2024-03-02T07:10:12;7.00;99.90
22635;DHT22;11484;50.858;4.384;2024-03-02T07:12:38;7.00;99.90
22635;DHT22;11484;50.858;4.384;2024-03-02T07:15:04;7.00;99.90
22635;DHT22;11484;50.858;4.384;2024-03-02T07:17:31;7.00;99.90
22635;DHT22;11484;50.858;4.384;2024-03-02T07:19:57;7.00;99.90
22635;DHT22;11484;50.858;4.384;2024-03-02T07:22:23;7.10;99.90
22635;DHT22;11484;50.858;4.384;2024-03-02T07:24:49;7.00;99.90
22635;DHT22;11484;50.858;4.384;2024-03-02T07:27:15;7.10;99.90
22635;DHT22;11484;50.858;4.384;2024-03-02T07:29:42;7.10;99.90
22635;DHT22;11484;50.858;4.384;2024-03-02T07:32:10;7.20;99.90
22635;DHT22;11484;50.858;4.384;2024-03-02T07:34:35;7.30;99.90
22635;DHT22;11484;50.858;4.384;2024-03-02T07:37:01;7.70;99.90
22635;DHT22;11484;50.858;4.384;2024-03-02T07:39:28;8.40;99.90
22635;DHT22;11484;50.858;4.384;2024-03-02T07:41:55;8.90;99.90
22635;DHT22;11484;50.858;4.384;2024-03-02T07:44:21;9.30;99.90
22635;DHT22;11484;50.858;4.384;2024-03-02T07:46:48;9.70;99.90
22635;DHT22;11484;50.858;4.384;2024-03-02T07:49:15;9.90;99.90
22635;DHT22;11484;50.858;4.384;2024-03-02T07:51:41;10.00;99.90
22635;DHT22;11484;50.858;4.384;2024-03-02T07:54:07;9.70;99.90
22635;DHT22;11484;50.858;4.384;2024-03-02T07:56:33;9.40;99.90
22635;DHT22;11484;50.858;4.384;2024-03-02T07:59:00;9.00;99.90
22635;DHT22;11484;50.858;4.384;2024-03-02T08:01:30;8.80;99.90
22635;DHT22;11484;50.858;4.384;2024-03-02T08:04:00;8.70;99.90
22635;DHT22;11484;50.858;4.384;2024-03-02T08:06:27;8.60;99.90
22635;DHT22;11484;50.858;4.384;2024-03-02T08:09:02;8.40;99.90
22635;DHT22;11484;50.858;4.384;2024-03-02T08:11:30;8.40;99.90
22635;DHT22;11484;50.858;4.384;2024-03-02T08:13:56;8.50;99.90
22635;DHT22;11484;50.858;4.384;2024-03-02T08:16:25;8.40;99.90
22635;DHT22;11484;50.858;4.384;2024-03-02T08:18:51;8.50;99.90
22635;DHT22;11484;50.858;4.384;2024-03-02T08:21:17;8.60;99.90
22635;DHT22;11484;50.858;4.384;2024-03-02T08:23:43;8.70;99.90
22635;DHT22;11484;50.858;4.384;2024-03-02T08:26:10;8.70;99.90
22635;DHT22;11484;50.858;4.384;2024-03-02T08:28:35;8.80;99.90
22635;DHT22;11484;50.858;4.384;2024-03-02T08:31:07;8.90;99.90
22635;DHT22;11484;50.858;4.384;2024-03-02T08:33:33;9.30;99.90
22635;DHT22;11484;50.858;4.384;2024-03-02T08:36:00;9.60;99.90
22635;DHT22;11484;50.858;4.384;2024-03-02T08:38:26;9.60;99.90
22635;DHT22;11484;50.858;4.384;2024-03-02T08:40:52;9.60;99.90
22635;DHT22;11484;50.858;4.384;2024-03-02T08:43:17;9.50;99.90
22635;DHT22;11484;50.858;4.384;2024-03-02T08:45:44;9.50;99.90
22635;DHT22;11484;50.858;4.384;2024-03-02T08:48:10;9.70;99.90
22635;DHT22;11484;50.858;4.384;2024-03-02T08:50:36;10.20;99.90
22635;DHT22;11484;50.858;4.384;2024-03-02T08:53:03;10.50;99.90
22635;DHT22;11484;50.858;4.384;2024-03-02T08:55:29;10.80;99.90
22635;DHT22;11484;50.858;4.384;2024-03-02T08:57:56;11.10;99.90
22635;DHT22;11484;50.858;4.384;2024-03-02T09:00:23;11.30;99.90
22635;DHT22;11484;50.858;4.384;2024-03-02T09:02:49;11.30;99.90
22635;DHT22;11484;50.858;4.384;2024-03-02T09:05:15;11.50;99.90
22635;DHT22;11484;50.858;4.384;2024-03-02T09:07:41;11.60;99.90
22635;DHT22;11484;50.858;4.384;2024-03-02T09:10:08;11.80;99.90
22635;DHT22;11484;50.858;4.384;2024-03-02T09:12:35;11.90;99.90
22635;DHT22;11484;50.858;4.384;2024-03-02T09:15:01;12.00;99.90
22635;DHT22;11484;50.858;4.384;2024-03-02T09:17:28;12.30;99.90
22635;DHT22;11484;50.858;4.384;2024-03-02T09:19:53;12.40;99.90
22635;DHT22;11484;50.858;4.384;2024-03-02T09:22:19;12.60;99.90
22635;DHT22;11484;50.858;4.384;2024-03-02T09:24:45;12.90;99.90
22635;DHT22;11484;50.858;4.384;2024-03-02T09:27:11;13.40;99.90
22635;DHT22;11484;50.858;4.384;2024-03-02T09:29:37;13.00;99.90
22635;DHT22;11484;50.858;4.384;2024-03-02T09:32:04;12.60;99.90
22635;DHT22;11484;50.858;4.384;2024-03-02T09:34:29;12.20;99.90
22635;DHT22;11484;50.858;4.384;2024-03-02T09:36:55;12.30;99.90
22635;DHT22;11484;50.858;4.384;2024-03-02T09:39:21;12.70;99.90
22635;DHT22;11484;50.858;4.384;2024-03-02T09:41:48;12.80;99.90
22635;DHT22;11484;50.858;4.384;2024-03-02T09:44:14;12.40;99.90
22635;DHT22;11484;50.858;4.384;2024-03-02T09:46:40;12.10;99.90
22635;DHT22;11484;50.858;4.384;2024-03-02T09:49:06;12.00;99.90
22635;DHT22;11484;50.858;4.384;2024-03-02T09:51:32;11.80;99.90
22635;DHT22;11484;50.858;4.384;2024-03-02T09:53:57;11.80;99.90
22635;DHT22;11484;50.858;4.384;2024-03-02T09:56:26;12.00;99.90
22635;DHT22;11484;50.858;4.384;2024-03-02T09:58:51;12.30;99.90
22635;DHT22;11484;50.858;4.384;2024-03-02T10:01:17;12.60;99.90
22635;DHT22;11484;50.858;4.384;2024-03-02T10:03:45;12.70;99.90
22635;DHT22;11484;50.858;4.384;2024-03-02T10:06:23;12.80;99.90
22635;DHT22;11484;50.858;4.384;2024-03-02T10:08:49;13.10;99.90
22635;DHT22;11484;50.858;4.384;2024-03-02T10:11:48;13.60;99.90
22635;DHT22;11484;50.858;4.384;2024-03-02T10:14:14;13.90;99.90
22635;DHT22;11484;50.858;4.384;2024-03-02T10:16:41;13.80;99.90
22635;DHT22;11484;50.858;4.384;2024-03-02T10:19:23;13.90;99.90
22635;DHT22;11484;50.858;4.384;2024-03-02T10:21:53;13.70;99.90
22635;DHT22;11484;50.858;4.384;2024-03-02T10:24:20;13.40;99.90
22635;DHT22;11484;50.858;4.384;2024-03-02T10:26:46;13.30;99.90
22635;DHT22;11484;50.858;4.384;2024-03-02T10:29:12;13.10;99.90
22635;DHT22;11484;50.858;4.384;2024-03-02T10:31:39;13.20;99.90
22635;DHT22;11484;50.858;4.384;2024-03-02T10:34:06;13.00;99.90
22635;DHT22;11484;50.858;4.384;2024-03-02T10:36:33;12.90;99.90
22635;DHT22;11484;50.858;4.384;2024-03-02T10:39:06;12.90;99.90
22635;DHT22;11484;50.858;4.384;2024-03-02T10:41:37;12.90;99.90
22635;DHT22;11484;50.858;4.384;2024-03-02T10:44:03;13.00;99.90
22635;DHT22;11484;50.858;4.384;2024-03-02T10:46:30;13.00;99.90
22635;DHT22;11484;50.858;4.384;2024-03-02T10:48:57;13.00;99.90
22635;DHT22;11484;50.858;4.384;2024-03-02T10:51:26;12.80;99.90
22635;DHT22;11484;50.858;4.384;2024-03-02T10:53:54;12.90;99.90
22635;DHT22;11484;50.858;4.384;2024-03-02T10:59:13;13.20;99.90
22635;DHT22;11484;50.858;4.384;2024-03-02T11:01:44;13.20;99.90
22635;DHT22;11484;50.858;4.384;2024-03-02T11:04:13;13.10;99.90
22635;DHT22;11484;50.858;4.384;2024-03-02T11:06:46;13.30;99.90
22635;DHT22;11484;50.858;4.384;2024-03-02T11:09:14;13.20;99.90
22635;DHT22;11484;50.858;4.384;2024-03-02T11:11:43;13.10;99.90
22635;DHT22;11484;50.858;4.384;2024-03-02T11:14:13;13.00;99.90
22635;DHT22;11484;50.858;4.384;2024-03-02T11:16:39;13.10;99.90
22635;DHT22;11484;50.858;4.384;2024-03-02T11:19:17;13.20;99.90
22635;DHT22;11484;50.858;4.384;2024-03-02T11:21:43;13.30;99.90
22635;DHT22;11484;50.858;4.384;2024-03-02T11:26:50;13.60;99.90
22635;DHT22;11484;50.858;4.384;2024-03-02T11:32:02;13.60;99.90
22635;DHT22;11484;50.858;4.384;2024-03-02T11:34:32;13.40;99.90
22635;DHT22;11484;50.858;4.384;2024-03-02T11:37:00;13.50;99.90
22635;DHT22;11484;50.858;4.384;2024-03-02T11:39:27;13.60;99.90
22635;DHT22;11484;50.858;4.384;2024-03-02T11:41:52;13.60;99.90
22635;DHT22;11484;50.858;4.384;2024-03-02T11:44:18;13.90;99.90
22635;DHT22;11484;50.858;4.384;2024-03-02T11:47:00;14.10;99.90
22635;DHT22;11484;50.858;4.384;2024-03-02T11:49:43;14.00;99.90
22635;DHT22;11484;50.858;4.384;2024-03-02T11:52:12;14.00;99.90
22635;DHT22;11484;50.858;4.384;2024-03-02T11:54:39;14.20;99.90
22635;DHT22;11484;50.858;4.384;2024-03-02T11:57:07;14.20;99.90
22635;DHT22;11484;50.858;4.384;2024-03-02T11:59:33;14.20;99.90
22635;DHT22;11484;50.858;4.384;2024-03-02T12:02:00;14.20;99.90
22635;DHT22;11484;50.858;4.384;2024-03-02T12:04:26;14.10;99.90
22635;DHT22;11484;50.858;4.384;2024-03-02T12:07:01;14.00;99.90
22635;DHT22;11484;50.858;4.384;2024-03-02T12:09:30;13.90;99.90
22635;DHT22;11484;50.858;4.384;2024-03-02T12:12:06;14.10;99.90
22635;DHT22;11484;50.858;4.384;2024-03-02T12:14:34;14.00;99.90
22635;DHT22;11484;50.858;4.384;2024-03-02T12:17:00;14.10;99.90
22635;DHT22;11484;50.858;4.384;2024-03-02T12:19:27;14.20;99.90
22635;DHT22;11484;50.858;4.384;2024-03-02T12:21:57;14.30;99.90
22635;DHT22;11484;50.858;4.384;2024-03-02T12:24:24;14.40;99.90
22635;DHT22;11484;50.858;4.384;2024-03-02T12:26:50;14.40;99.90
22635;DHT22;11484;50.858;4.384;2024-03-02T12:29:20;14.40;99.90
22635;DHT22;11484;50.858;4.384;2024-03-02T12:31:51;14.40;99.90
22635;DHT22;11484;50.858;4.384;2024-03-02T12:34:20;14.30;99.90
22635;DHT22;11484;50.858;4.384;2024-03-02T12:36:46;14.40;99.90
22635;DHT22;11484;50.858;4.384;2024-03-02T12:39:19;14.40;99.90
22635;DHT22;11484;50.858;4.384;2024-03-02T12:41:46;14.40;99.90
22635;DHT22;11484;50.858;4.384;2024-03-02T12:44:12;14.20;99.90
22635;DHT22;11484;50.858;4.384;2024-03-02T12:46:38;14.00;99.90
22635;DHT22;11484;50.858;4.384;2024-03-02T12:49:12;13.90;99.90
22635;DHT22;11484;50.858;4.384;2024-03-02T12:51:39;13.90;99.90
22635;DHT22;11484;50.858;4.384;2024-03-02T12:54:09;13.90;99.90
22635;DHT22;11484;50.858;4.384;2024-03-02T12:56:36;14.20;99.90
22635;DHT22;11484;50.858;4.384;2024-03-02T12:59:04;14.20;99.90
22635;DHT22;11484;50.858;4.384;2024-03-02T13:01:30;14.30;99.90
22635;DHT22;11484;50.858;4.384;2024-03-02T13:03:58;14.50;99.90
22635;DHT22;11484;50.858;4.384;2024-03-02T13:06:25;14.60;99.90
22635;DHT22;11484;50.858;4.384;2024-03-02T13:08:53;14.50;99.90
22635;DHT22;11484;50.858;4.384;2024-03-02T13:11:19;14.30;99.90
22635;DHT22;11484;50.858;4.384;2024-03-02T13:13:46;14.20;99.90
22635;DHT22;11484;50.858;4.384;2024-03-02T13:16:12;14.00;99.90
22635;DHT22;11484;50.858;4.384;2024-03-02T13:18:39;13.90;99.90
22635;DHT22;11484;50.858;4.384;2024-03-02T13:21:08;13.90;99.90
22635;DHT22;11484;50.858;4.384;2024-03-02T13:23:34;13.90;99.90
22635;DHT22;11484;50.858;4.384;2024-03-02T13:26:00;13.80;99.90
22635;DHT22;11484;50.858;4.384;2024-03-02T13:28:26;13.90;99.90
22635;DHT22;11484;50.858;4.384;2024-03-02T13:30:52;14.10;99.90
22635;DHT22;11484;50.858;4.384;2024-03-02T13:33:19;14.20;99.90
22635;DHT22;11484;50.858;4.384;2024-03-02T13:35:52;14.10;99.90
22635;DHT22;11484;50.858;4.384;2024-03-02T13:38:19;14.10;99.90
22635;DHT22;11484;50.858;4.384;2024-03-02T13:40:45;14.10;99.90
22635;DHT22;11484;50.858;4.384;2024-03-02T13:43:12;14.10;99.90
22635;DHT22;11484;50.858;4.384;2024-03-02T13:45:38;14.20;99.90
22635;DHT22;11484;50.858;4.384;2024-03-02T13:48:04;14.30;99.90
22635;DHT22;11484;50.858;4.384;2024-03-02T13:50:31;14.50;99.90
22635;DHT22;11484;50.858;4.384;2024-03-02T13:52:56;14.60;99.90
22635;DHT22;11484;50.858;4.384;2024-03-02T13:55:22;14.60;99.90
22635;DHT22;11484;50.858;4.384;2024-03-02T13:57:48;14.60;99.90
22635;DHT22;11484;50.858;4.384;2024-03-02T14:00:16;14.50;99.90
22635;DHT22;11484;50.858;4.384;2024-03-02T14:02:43;14.30;99.90
22635;DHT22;11484;50.858;4.384;2024-03-02T14:05:09;14.30;99.90
22635;DHT22;11484;50.858;4.384;2024-03-02T14:07:38;14.30;99.90
22635;DHT22;11484;50.858;4.384;2024-03-02T14:10:04;14.30;99.90
22635;DHT22;11484;50.858;4.384;2024-03-02T14:12:30;14.30;99.90
22635;DHT22;11484;50.858;4.384;2024-03-02T14:14:56;14.20;99.90
22635;DHT22;11484;50.858;4.384;2024-03-02T14:17:24;14.30;99.90
22635;DHT22;11484;50.858;4.384;2024-03-02T14:19:50;14.30;99.90
22635;DHT22;11484;50.858;4.384;2024-03-02T14:22:16;14.40;99.90
22635;DHT22;11484;50.858;4.384;2024-03-02T14:24:43;14.30;99.90
22635;DHT22;11484;50.858;4.384;2024-03-02T14:27:09;14.30;99.90
22635;DHT22;11484;50.858;4.384;2024-03-02T14:29:35;14.10;99.90
22635;DHT22;11484;50.858;4.384;2024-03-02T14:32:03;14.00;99.90
22635;DHT22;11484;50.858;4.384;2024-03-02T14:34:29;13.80;99.90
22635;DHT22;11484;50.858;4.384;2024-03-02T14:36:55;13.70;99.90
22635;DHT22;11484;50.858;4.384;2024-03-02T14:39:21;13.60;99.90
22635;DHT22;11484;50.858;4.384;2024-03-02T14:41:46;13.70;99.90
22635;DHT22;11484;50.858;4.384;2024-03-02T14:44:12;13.80;99.90
22635;DHT22;11484;50.858;4.384;2024-03-02T14:46:38;13.80;99.90
22635;DHT22;11484;50.858;4.384;2024-03-02T14:49:04;13.80;99.90
22635;DHT22;11484;50.858;4.384;2024-03-02T14:51:29;13.90;99.90
22635;DHT22;11484;50.858;4.384;2024-03-02T14:53:55;13.80;99.90
22635;DHT22;11484;50.858;4.384;2024-03-02T14:56:21;13.80;99.90
22635;DHT22;11484;50.858;4.384;2024-03-02T14:58:47;13.80;99.90
22635;DHT22;11484;50.858;4.384;2024-03-02T15:01:13;13.80;99.90
22635;DHT22;11484;50.858;4.384;2024-03-02T15:03:40;13.80;99.90
22635;DHT22;11484;50.858;4.384;2024-03-02T15:06:07;13.80;99.90
22635;DHT22;11484;50.858;4.384;2024-03-02T15:08:33;13.80;99.90
22635;DHT22;11484;50.858;4.384;2024-03-02T15:10:59;13.80;99.90
22635;DHT22;11484;50.858;4.384;2024-03-02T15:13:26;13.70;99.90
22635;DHT22;11484;50.858;4.384;2024-03-02T15:15:52;13.50;99.90
22635;DHT22;11484;50.858;4.384;2024-03-02T15:18:18;13.50;99.90
22635;DHT22;11484;50.858;4.384;2024-03-02T15:20:44;13.60;99.90
22635;DHT22;11484;50.858;4.384;2024-03-02T15:23:10;13.60;99.90
22635;DHT22;11484;50.858;4.384;2024-03-02T15:25:36;13.60;99.90
22635;DHT22;11484;50.858;4.384;2024-03-02T15:28:01;13.70;99.90
22635;DHT22;11484;50.858;4.384;2024-03-02T15:30:27;13.60;99.90
22635;DHT22;11484;50.858;4.384;2024-03-02T15:32:53;13.60;99.90
22635;DHT22;11484;50.858;4.384;2024-03-02T15:35:19;13.70;99.90
22635;DHT22;11484;50.858;4.384;2024-03-02T15:37:44;13.60;99.90
22635;DHT22;11484;50.858;4.384;2024-03-02T15:40:10;13.60;99.90
22635;DHT22;11484;50.858;4.384;2024-03-02T15:42:36;13.50;99.90
22635;DHT22;11484;50.858;4.384;2024-03-02T15:45:02;13.60;99.90